sensor_id;sensor_type;location;lat;lon;timestamp;temperature;humidity
5011;DHT22;2524;54.364;10.072;2023-07-20T00:01:40;16.00;99.90
5011;DHT22;2524;54.364;10.072;2023-07-20T00:04:10;16.00;99.90
5011;DHT22;2524;54.364;10.072;2023-07-20T00:06:36;16.00;99.90
5011;DHT22;2524;54.364;10.072;2023-07-20T00:09:03;15.90;99.90
5011;DHT22;2524;54.364;10.072;2023-07-20T00:11:28;15.90;99.90
5011;DHT22;2524;54.364;10.072;2023-07-20T00:13:54;16.00;99.90
5011;DHT22;2524;54.364;10.072;2023-07-20T00:16:19;15.90;99.90
5011;DHT22;2524;54.364;10.072;2023-07-20T00:18:45;15.90;99.90
5011;DHT22;2524;54.364;10.072;2023-07-20T00:21:11;15.90;99.90
5011;DHT22;2524;54.364;10.072;2023-07-20T00:23:37;16.00;99.90
5011;DHT22;2524;54.364;10.072;2023-07-20T00:26:03;16.00;99.90
5011;DHT22;2524;54.364;10.072;2023-07-20T00:28:29;15.90;99.90
5011;DHT22;2524;54.364;10.072;2023-07-20T00:30:54;15.90;99.90
5011;DHT22;2524;54.364;10.072;2023-07-20T00:33:20;15.90;99.90
5011;DHT22;2524;54.364;10.072;2023-07-20T00:35:45;15.90;99.90
5011;DHT22;2524;54.364;10.072;2023-07-20T00:38:11;16.00;99.90
5011;DHT22;2524;54.364;10.072;2023-07-20T00:40:40;16.00;99.90
5011;DHT22;2524;54.364;10.072;2023-07-20T00:43:07;15.90;99.90
5011;DHT22;2524;54.364;10.072;2023-07-20T00:45:33;15.90;99.90
5011;DHT22;2524;54.364;10.072;2023-07-20T00:48:01;15.90;99.90
5011;DHT22;2524;54.364;10.072;2023-07-20T00:50:27;15.90;99.90
5011;DHT22;2524;54.364;10.072;2023-07-20T00:52:55;15.90;99.90
5011;DHT22;2524;54.364;10.072;2023-07-20T00:55:21;15.90;99.90
5011;DHT22;2524;54.364;10.072;2023-07-20T00:57:47;15.90;99.90
5011;DHT22;2524;54.364;10.072;2023-07-20T01:00:13;16.00;99.90
5011;DHT22;2524;54.364;10.072;2023-07-20T01:02:39;15.90;99.90
5011;DHT22;2524;54.364;10.072;2023-07-20T01:05:05;15.90;99.90
5011;DHT22;2524;54.364;10.072;2023-07-20T01:10:19;15.90;99.90
5011;DHT22;2524;54.364;10.072;2023-07-20T01:12:51;15.80;99.90
5011;DHT22;2524;54.364;10.072;2023-07-20T01:15:17;15.80;99.90
5011;DHT22;2524;54.364;10.072;2023-07-20T01:17:43;15.70;99.90
5011;DHT22;2524;54.364;10.072;2023-07-20T01:20:13;15.70;99.90
5011;DHT22;2524;54.364;10.072;2023-07-20T01:23:01;15.70;99.90
5011;DHT22;2524;54.364;10.072;2023-07-20T01:25:34;15.60;99.90
5011;DHT22;2524;54.364;10.072;2023-07-20T01:31:25;15.60;99.90
5011;DHT22;2524;54.364;10.072;2023-07-20T01:33:54;15.60;99.90
5011;DHT22;2524;54.364;10.072;2023-07-20T01:36:22;15.60;99.90
5011;DHT22;2524;54.364;10.072;2023-07-20T01:38:49;15.60;99.90
5011;DHT22;2524;54.364;10.072;2023-07-20T01:41:15;15.60;99.90
5011;DHT22;2524;54.364;10.072;2023-07-20T01:43:42;15.50;99.90
5011;DHT22;2524;54.364;10.072;2023-07-20T01:46:07;15.60;99.90
5011;DHT22;2524;54.364;10.072;2023-07-20T01:48:33;15.50;99.90
5011;DHT22;2524;54.364;10.072;2023-07-20T01:50:58;15.50;99.90
5011;DHT22;2524;54.364;10.072;2023-07-20T01:53:24;15.50;99.90
5011;DHT22;2524;54.364;10.072;2023-07-20T01:55:51;15.50;99.90
5011;DHT22;2524;54.364;10.072;2023-07-20T01:58:17;15.50;99.90
5011;DHT22;2524;54.364;10.072;2023-07-20T02:00:43;15.50;99.90
5011;DHT22;2524;54.364;10.072;2023-07-20T02:03:08;15.50;99.90
5011;DHT22;2524;54.364;10.072;2023-07-20T02:05:34;15.50;99.90
5011;DHT22;2524;54.364;10.072;2023-07-20T02:07:59;15.50;99.90
5011;DHT22;2524;54.364;10.072;2023-07-20T02:10:25;15.40;99.90
5011;DHT22;2524;54.364;10.072;2023-07-20T02:12:50;15.40;99.90
5011;DHT22;2524;54.364;10.072;2023-07-20T02:15:17;15.40;99.90
5011;DHT22;2524;54.364;10.072;2023-07-20T02:17:44;15.30;99.90
5011;DHT22;2524;54.364;10.072;2023-07-20T02:20:10;15.30;99.90
5011;DHT22;2524;54.364;10.072;2023-07-20T02:22:36;15.30;99.90
5011;DHT22;2524;54.364;10.072;2023-07-20T02:25:04;15.30;99.90
5011;DHT22;2524;54.364;10.072;2023-07-20T02:27:30;15.40;99.90
5011;DHT22;2524;54.364;10.072;2023-07-20T02:29:56;15.30;99.90
5011;DHT22;2524;54.364;10.072;2023-07-20T02:32:22;15.30;99.90
5011;DHT22;2524;54.364;10.072;2023-07-20T02:34:47;15.30;99.90
5011;DHT22;2524;54.364;10.072;2023-07-20T02:37:13;15.30;99.90
5011;DHT22;2524;54.364;10.072;2023-07-20T02:39:39;15.30;99.90
5011;DHT22;2524;54.364;10.072;2023-07-20T02:42:05;15.20;99.90
5011;DHT22;2524;54.364;10.072;2023-07-20T02:44:31;15.20;99.90
5011;DHT22;2524;54.364;10.072;2023-07-20T02:46:56;15.20;99.90
5011;DHT22;2524;54.364;10.072;2023-07-20T02:49:22;15.20;99.90
5011;DHT22;2524;54.364;10.072;2023-07-20T02:51:47;15.20;99.90
5011;DHT22;2524;54.364;10.072;2023-07-20T02:54:13;15.20;99.90
5011;DHT22;2524;54.364;10.072;2023-07-20T02:56:38;15.10;99.90
5011;DHT22;2524;54.364;10.072;2023-07-20T02:59:04;15.10;99.90
5011;DHT22;2524;54.364;10.072;2023-07-20T03:01:29;15.10;99.90
5011;DHT22;2524;54.364;10.072;2023-07-20T03:03:55;15.10;99.90
5011;DHT22;2524;54.364;10.072;2023-07-20T03:06:21;15.10;99.90
5011;DHT22;2524;54.364;10.072;2023-07-20T03:08:47;15.10;99.90
5011;DHT22;2524;54.364;10.072;2023-07-20T03:11:17;15.10;99.90
5011;DHT22;2524;54.364;10.072;2023-07-20T03:13:43;15.00;99.90
5011;DHT22;2524;54.364;10.072;2023-07-20T03:16:10;15.00;99.90
5011;DHT22;2524;54.364;10.072;2023-07-20T03:18:39;15.00;99.90
5011;DHT22;2524;54.364;10.072;2023-07-20T03:21:08;15.00;99.90
5011;DHT22;2524;54.364;10.072;2023-07-20T03:23:37;15.00;99.90
5011;DHT22;2524;54.364;10.072;2023-07-20T03:26:02;14.90;99.90
5011;DHT22;2524;54.364;10.072;2023-07-20T03:28:28;14.90;99.90
5011;DHT22;2524;54.364;10.072;2023-07-20T03:30:56;14.90;99.90
5011;DHT22;2524;54.364;10.072;2023-07-20T03:33:26;14.90;99.90
5011;DHT22;2524;54.364;10.072;2023-07-20T03:35:53;14.90;99.90
5011;DHT22;2524;54.364;10.072;2023-07-20T03:38:19;14.80;99.90
5011;DHT22;2524;54.364;10.072;2023-07-20T03:40:56;14.80;99.90
5011;DHT22;2524;54.364;10.072;2023-07-20T03:43:23;14.80;99.90
5011;DHT22;2524;54.364;10.072;2023-07-20T03:45:49;14.80;99.90
5011;DHT22;2524;54.364;10.072;2023-07-20T03:48:16;14.80;99.90
5011;DHT22;2524;54.364;10.072;2023-07-20T03:50:43;14.80;99.90
5011;DHT22;2524;54.364;10.072;2023-07-20T03:53:09;14.80;99.90
5011;DHT22;2524;54.364;10.072;2023-07-20T03:55:34;14.80;99.90
5011;DHT22;2524;54.364;10.072;2023-07-20T03:58:01;14.90;99.90
5011;DHT22;2524;54.364;10.072;2023-07-20T04:00:27;14.80;99.90
5011;DHT22;2524;54.364;10.072;2023-07-20T04:02:52;14.80;99.90
5011;DHT22;2524;54.364;10.072;2023-07-20T04:05:18;14.80;99.90
5011;DHT22;2524;54.364;10.072;2023-07-20T04:07:44;14.80;99.90
5011;DHT22;2524;54.364;10.072;2023-07-20T04:10:09;14.80;99.90
5011;DHT22;2524;54.364;10.072;2023-07-20T04:12:35;14.80;99.90
5011;DHT22;2524;54.364;10.072;2023-07-20T04:15:01;14.80;99.90
5011;DHT22;2524;54.364;10.072;2023-07-20T04:17:28;14.70;99.90
5011;DHT22;2524;54.364;10.072;2023-07-20T04:19:54;14.80;99.90
5011;DHT22;2524;54.364;10.072;2023-07-20T04:22:19;14.80;99.90
5011;DHT22;2524;54.364;10.072;2023-07-20T04:24:45;14.80;99.90
5011;DHT22;2524;54.364;10.072;2023-07-20T04:27:10;14.70;99.90
5011;DHT22;2524;54.364;10.072;2023-07-20T04:29:36;14.80;99.90
5011;DHT22;2524;54.364;10.072;2023-07-20T04:32:02;14.80;99.90
5011;DHT22;2524;54.364;10.072;2023-07-20T04:34:27;14.70;99.90
5011;DHT22;2524;54.364;10.072;2023-07-20T04:36:53;14.70;99.90
5011;DHT22;2524;54.364;10.072;2023-07-20T04:39:18;14.80;99.90
5011;DHT22;2524;54.364;10.072;2023-07-20T04:41:44;14.70;99.90
5011;DHT22;2524;54.364;10.072;2023-07-20T04:44:09;14.80;99.90
5011;DHT22;2524;54.364;10.072;2023-07-20T04:46:35;14.70;99.90
5011;DHT22;2524;54.364;10.072;2023-07-20T04:49:01;14.80;99.90
5011;DHT22;2524;54.364;10.072;2023-07-20T04:51:27;14.80;99.90
5011;DHT22;2524;54.364;10.072;2023-07-20T04:53:52;14.80;99.90
5011;DHT22;2524;54.364;10.072;2023-07-20T04:56:18;14.80;99.90
5011;DHT22;2524;54.364;10.072;2023-07-20T04:58:43;14.80;99.90
5011;DHT22;2524;54.364;10.072;2023-07-20T05:01:09;14.70;99.90
5011;DHT22;2524;54.364;10.072;2023-07-20T05:03:34;14.80;99.90
5011;DHT22;2524;54.364;10.072;2023-07-20T05:06:00;14.80;99.90
5011;DHT22;2524;54.364;10.072;2023-07-20T05:08:26;14.80;99.90
5011;DHT22;2524;54.364;10.072;2023-07-20T05:10:52;14.80;99.90
5011;DHT22;2524;54.364;10.072;2023-07-20T05:13:17;14.80;99.90
5011;DHT22;2524;54.364;10.072;2023-07-20T05:15:43;14.80;99.90
5011;DHT22;2524;54.364;10.072;2023-07-20T05:18:08;14.80;99.90
5011;DHT22;2524;54.364;10.072;2023-07-20T05:20:34;14.90;99.90
5011;DHT22;2524;54.364;10.072;2023-07-20T05:23:00;14.80;99.90
5011;DHT22;2524;54.364;10.072;2023-07-20T05:25:26;14.90;99.90
5011;DHT22;2524;54.364;10.072;2023-07-20T05:27:52;14.90;99.90
5011;DHT22;2524;54.364;10.072;2023-07-20T05:30:18;14.90;99.90
5011;DHT22;2524;54.364;10.072;2023-07-20T05:32:44;15.00;99.90
5011;DHT22;2524;54.364;10.072;2023-07-20T05:35:12;15.00;99.90
5011;DHT22;2524;54.364;10.072;2023-07-20T05:37:39;15.00;99.90
5011;DHT22;2524;54.364;10.072;2023-07-20T05:40:05;15.00;99.90
5011;DHT22;2524;54.364;10.072;2023-07-20T05:42:33;15.10;99.90
5011;DHT22;2524;54.364;10.072;2023-07-20T05:44:58;15.10;99.90
5011;DHT22;2524;54.364;10.072;2023-07-20T05:47:24;15.20;99.90
5011;DHT22;2524;54.364;10.072;2023-07-20T05:49:49;15.20;99.90
5011;DHT22;2524;54.364;10.072;2023-07-20T05:52:15;15.20;99.90
5011;DHT22;2524;54.364;10.072;2023-07-20T05:54:40;15.40;99.90
5011;DHT22;2524;54.364;10.072;2023-07-20T05:57:07;15.40;99.90
5011;DHT22;2524;54.364;10.072;2023-07-20T05:59:33;15.40;99.90
5011;DHT22;2524;54.364;10.072;2023-07-20T06:01:58;15.40;99.90
5011;DHT22;2524;54.364;10.072;2023-07-20T06:04:24;15.60;99.90
5011;DHT22;2524;54.364;10.072;2023-07-20T06:06:50;15.50;99.90
5011;DHT22;2524;54.364;10.072;2023-07-20T06:09:15;15.50;99.90
5011;DHT22;2524;54.364;10.072;2023-07-20T06:11:41;15.50;99.90
5011;DHT22;2524;54.364;10.072;2023-07-20T06:14:06;15.70;99.90
5011;DHT22;2524;54.364;10.072;2023-07-20T06:16:32;15.60;99.90
5011;DHT22;2524;54.364;10.072;2023-07-20T06:18:59;15.70;99.90
5011;DHT22;2524;54.364;10.072;2023-07-20T06:21:25;15.70;99.90
5011;DHT22;2524;54.364;10.072;2023-07-20T06:23:50;15.80;99.90
5011;DHT22;2524;54.364;10.072;2023-07-20T06:26:16;15.90;99.90
5011;DHT22;2524;54.364;10.072;2023-07-20T06:28:41;15.80;99.90
5011;DHT22;2524;54.364;10.072;2023-07-20T06:31:07;15.80;99.90
5011;DHT22;2524;54.364;10.072;2023-07-20T06:33:33;15.90;99.90
5011;DHT22;2524;54.364;10.072;2023-07-20T06:36:00;15.80;99.90
5011;DHT22;2524;54.364;10.072;2023-07-20T06:38:25;15.80;99.90
5011;DHT22;2524;54.364;10.072;2023-07-20T06:40:51;15.80;99.90
5011;DHT22;2524;54.364;10.072;2023-07-20T06:43:17;15.80;99.90
5011;DHT22;2524;54.364;10.072;2023-07-20T06:45:42;15.80;99.90
5011;DHT22;2524;54.364;10.072;2023-07-20T06:48:08;15.90;99.90
5011;DHT22;2524;54.364;10.072;2023-07-20T06:50:33;16.00;99.90
5011;DHT22;2524;54.364;10.072;2023-07-20T06:52:59;16.10;99.90
5011;DHT22;2524;54.364;10.072;2023-07-20T06:55:25;16.00;99.90
5011;DHT22;2524;54.364;10.072;2023-07-20T06:57:51;16.10;99.90
5011;DHT22;2524;54.364;10.072;2023-07-20T07:00:17;16.20;99.90
5011;DHT22;2524;54.364;10.072;2023-07-20T07:02:43;16.20;99.90
5011;DHT22;2524;54.364;10.072;2023-07-20T07:05:09;16.30;99.90
5011;DHT22;2524;54.364;10.072;2023-07-20T07:07:34;16.30;99.90
5011;DHT22;2524;54.364;10.072;2023-07-20T07:10:01;16.30;99.90
5011;DHT22;2524;54.364;10.072;2023-07-20T07:12:26;16.40;99.90
5011;DHT22;2524;54.364;10.072;2023-07-20T07:14:52;16.40;99.90
5011;DHT22;2524;54.364;10.072;2023-07-20T07:17:18;16.40;99.90
5011;DHT22;2524;54.364;10.072;2023-07-20T07:19:44;16.50;99.90
5011;DHT22;2524;54.364;10.072;2023-07-20T07:22:10;16.50;99.90
5011;DHT22;2524;54.364;10.072;2023-07-20T07:24:35;16.60;99.90
5011;DHT22;2524;54.364;10.072;2023-07-20T07:27:01;16.50;99.90
5011;DHT22;2524;54.364;10.072;2023-07-20T07:29:27;16.50;99.90
5011;DHT22;2524;54.364;10.072;2023-07-20T07:31:53;16.60;99.90
5011;DHT22;2524;54.364;10.072;2023-07-20T07:34:18;16.50;99.90
5011;DHT22;2524;54.364;10.072;2023-07-20T07:36:44;16.50;99.90
5011;DHT22;2524;54.364;10.072;2023-07-20T07:39:10;16.50;99.90
5011;DHT22;2524;54.364;10.072;2023-07-20T07:41:36;16.50;99.90
5011;DHT22;2524;54.364;10.072;2023-07-20T07:44:03;16.40;99.90
5011;DHT22;2524;54.364;10.072;2023-07-20T07:46:28;16.40;99.90
5011;DHT22;2524;54.364;10.072;2023-07-20T07:48:54;16.40;99.90
5011;DHT22;2524;54.364;10.072;2023-07-20T07:51:19;16.40;99.90
5011;DHT22;2524;54.364;10.072;2023-07-20T07:53:48;16.30;99.90
5011;DHT22;2524;54.364;10.072;2023-07-20T07:56:14;16.30;99.90
5011;DHT22;2524;54.364;10.072;2023-07-20T07:58:40;16.30;99.90
5011;DHT22;2524;54.364;10.072;2023-07-20T08:01:06;16.30;99.90
5011;DHT22;2524;54.364;10.072;2023-07-20T08:03:31;16.40;99.90
5011;DHT22;2524;54.364;10.072;2023-07-20T08:05:57;16.30;99.90
5011;DHT22;2524;54.364;10.072;2023-07-20T08:08:24;16.30;99.90
5011;DHT22;2524;54.364;10.072;2023-07-20T08:10:52;16.30;99.90
5011;DHT22;2524;54.364;10.072;2023-07-20T08:13:18;16.40;99.90
5011;DHT22;2524;54.364;10.072;2023-07-20T08:15:50;16.60;99.90
5011;DHT22;2524;54.364;10.072;2023-07-20T08:18:19;16.70;99.90
5011;DHT22;2524;54.364;10.072;2023-07-20T08:20:45;16.80;99.90
5011;DHT22;2524;54.364;10.072;2023-07-20T08:23:11;16.90;99.90
5011;DHT22;2524;54.364;10.072;2023-07-20T08:25:37;16.80;99.90
5011;DHT22;2524;54.364;10.072;2023-07-20T08:28:05;16.80;99.90
5011;DHT22;2524;54.364;10.072;2023-07-20T08:30:48;16.80;99.90
5011;DHT22;2524;54.364;10.072;2023-07-20T08:33:15;16.70;99.90
5011;DHT22;2524;54.364;10.072;2023-07-20T08:35:42;16.60;99.90
5011;DHT22;2524;54.364;10.072;2023-07-20T08:38:08;16.60;99.90
5011;DHT22;2524;54.364;10.072;2023-07-20T08:40:39;16.60;99.90
5011;DHT22;2524;54.364;10.072;2023-07-20T08:43:05;16.60;99.90
5011;DHT22;2524;54.364;10.072;2023-07-20T08:45:33;16.60;99.90
5011;DHT22;2524;54.364;10.072;2023-07-20T08:48:00;16.60;99.90
5011;DHT22;2524;54.364;10.072;2023-07-20T08:50:30;16.70;99.90
5011;DHT22;2524;54.364;10.072;2023-07-20T08:52:57;16.90;99.90
5011;DHT22;2524;54.364;10.072;2023-07-20T08:55:23;16.90;99.90
5011;DHT22;2524;54.364;10.072;2023-07-20T08:57:59;16.90;99.90
5011;DHT22;2524;54.364;10.072;2023-07-20T09:00:26;16.90;99.90
5011;DHT22;2524;54.364;10.072;2023-07-20T09:02:53;17.00;99.90
5011;DHT22;2524;54.364;10.072;2023-07-20T09:05:20;17.20;99.90
5011;DHT22;2524;54.364;10.072;2023-07-20T09:07:46;17.20;99.90
5011;DHT22;2524;54.364;10.072;2023-07-20T09:10:12;17.30;99.90
5011;DHT22;2524;54.364;10.072;2023-07-20T09:12:39;17.40;99.90
5011;DHT22;2524;54.364;10.072;2023-07-20T09:15:06;17.50;99.90
5011;DHT22;2524;54.364;10.072;2023-07-20T09:17:32;17.50;99.90
5011;DHT22;2524;54.364;10.072;2023-07-20T09:19:57;17.50;99.90
5011;DHT22;2524;54.364;10.072;2023-07-20T09:22:29;17.50;99.90
5011;DHT22;2524;54.364;10.072;2023-07-20T09:24:56;17.40;99.90
5011;DHT22;2524;54.364;10.072;2023-07-20T09:27:21;17.30;99.90
5011;DHT22;2524;54.364;10.072;2023-07-20T09:29:53;17.40;99.90
5011;DHT22;2524;54.364;10.072;2023-07-20T09:32:19;17.40;99.90
5011;DHT22;2524;54.364;10.072;2023-07-20T09:34:50;17.30;99.90
5011;DHT22;2524;54.364;10.072;2023-07-20T09:37:23;17.30;99.90
5011;DHT22;2524;54.364;10.072;2023-07-20T09:39:52;17.40;99.90
5011;DHT22;2524;54.364;10.072;2023-07-20T09:42:18;17.30;99.90
5011;DHT22;2524;54.364;10.072;2023-07-20T09:44:44;17.30;99.90
5011;DHT22;2524;54.364;10.072;2023-07-20T09:47:10;17.20;99.90
5011;DHT22;2524;54.364;10.072;2023-07-20T09:49:42;17.20;99.90
5011;DHT22;2524;54.364;10.072;2023-07-20T09:52:11;17.10;99.90
5011;DHT22;2524;54.364;10.072;2023-07-20T09:54:40;17.00;99.90
5011;DHT22;2524;54.364;10.072;2023-07-20T09:57:08;16.90;99.90
5011;DHT22;2524;54.364;10.072;2023-07-20T09:59:34;17.00;99.90
5011;DHT22;2524;54.364;10.072;2023-07-20T10:02:01;17.00;99.90
5011;DHT22;2524;54.364;10.072;2023-07-20T10:04:30;16.90;99.90
5011;DHT22;2524;54.364;10.072;2023-07-20T10:07:00;17.00;99.90
5011;DHT22;2524;54.364;10.072;2023-07-20T10:09:28;17.00;99.90
5011;DHT22;2524;54.364;10.072;2023-07-20T10:11:56;17.10;99.90
5011;DHT22;2524;54.364;10.072;2023-07-20T10:14:24;17.20;99.90
5011;DHT22;2524;54.364;10.072;2023-07-20T10:16:51;17.40;99.90
5011;DHT22;2524;54.364;10.072;2023-07-20T10:19:27;17.50;99.90
5011;DHT22;2524;54.364;10.072;2023-07-20T10:22:00;17.70;99.90
5011;DHT22;2524;54.364;10.072;2023-07-20T10:24:29;17.90;99.90
5011;DHT22;2524;54.364;10.072;2023-07-20T10:26:57;17.90;99.90
5011;DHT22;2524;54.364;10.072;2023-07-20T10:29:24;17.90;99.90
5011;DHT22;2524;54.364;10.072;2023-07-20T10:31:50;17.80;99.90
5011;DHT22;2524;54.364;10.072;2023-07-20T10:34:16;17.80;99.90
5011;DHT22;2524;54.364;10.072;2023-07-20T10:36:46;17.70;99.90
5011;DHT22;2524;54.364;10.072;2023-07-20T10:39:26;17.60;99.90
5011;DHT22;2524;54.364;10.072;2023-07-20T10:42:09;17.50;99.90
5011;DHT22;2524;54.364;10.072;2023-07-20T10:44:37;17.60;99.90
5011;DHT22;2524;54.364;10.072;2023-07-20T10:47:12;17.70;99.90
5011;DHT22;2524;54.364;10.072;2023-07-20T10:50:00;17.80;99.90
5011;DHT22;2524;54.364;10.072;2023-07-20T10:52:26;18.10;99.90
5011;DHT22;2524;54.364;10.072;2023-07-20T10:54:51;18.30;99.90
5011;DHT22;2524;54.364;10.072;2023-07-20T10:57:31;18.50;99.90
5011;DHT22;2524;54.364;10.072;2023-07-20T11:00:11;18.70;99.90
5011;DHT22;2524;54.364;10.072;2023-07-20T11:02:44;18.70;99.90
5011;DHT22;2524;54.364;10.072;2023-07-20T11:05:36;18.70;99.90
5011;DHT22;2524;54.364;10.072;2023-07-20T11:08:10;18.60;99.90
5011;DHT22;2524;54.364;10.072;2023-07-20T11:10:35;18.50;99.90
5011;DHT22;2524;54.364;10.072;2023-07-20T11:18:27;18.70;98.70
5011;DHT22;2524;54.364;10.072;2023-07-20T11:20:53;18.70;99.40
5011;DHT22;2524;54.364;10.072;2023-07-20T11:23:22;18.70;98.40
5011;DHT22;2524;54.364;10.072;2023-07-20T11:25:49;18.80;98.10
5011;DHT22;2524;54.364;10.072;2023-07-20T11:28:15;18.70;98.00
5011;DHT22;2524;54.364;10.072;2023-07-20T11:30:41;18.70;97.50
5011;DHT22;2524;54.364;10.072;2023-07-20T11:33:09;18.80;98.10
5011;DHT22;2524;54.364;10.072;2023-07-20T11:35:45;18.90;97.40
5011;DHT22;2524;54.364;10.072;2023-07-20T11:38:16;18.90;97.90
5011;DHT22;2524;54.364;10.072;2023-07-20T11:40:45;18.80;97.30
5011;DHT22;2524;54.364;10.072;2023-07-20T11:43:12;18.80;96.90
5011;DHT22;2524;54.364;10.072;2023-07-20T11:45:39;18.80;97.20
5011;DHT22;2524;54.364;10.072;2023-07-20T11:48:04;18.80;97.20
5011;DHT22;2524;54.364;10.072;2023-07-20T11:50:30;18.80;96.60
5011;DHT22;2524;54.364;10.072;2023-07-20T11:52:56;18.90;97.10
5011;DHT22;2524;54.364;10.072;2023-07-20T11:55:22;18.80;96.80
5011;DHT22;2524;54.364;10.072;2023-07-20T11:58:07;18.90;96.50
5011;DHT22;2524;54.364;10.072;2023-07-20T12:00:34;19.00;96.90
5011;DHT22;2524;54.364;10.072;2023-07-20T12:03:00;19.10;96.80
5011;DHT22;2524;54.364;10.072;2023-07-20T12:05:27;19.30;97.20
5011;DHT22;2524;54.364;10.072;2023-07-20T12:07:53;19.40;96.00
5011;DHT22;2524;54.364;10.072;2023-07-20T12:10:26;19.50;96.40
5011;DHT22;2524;54.364;10.072;2023-07-20T12:12:53;19.60;96.30
5011;DHT22;2524;54.364;10.072;2023-07-20T12:15:24;19.60;96.20
5011;DHT22;2524;54.364;10.072;2023-07-20T12:17:56;19.70;96.10
5011;DHT22;2524;54.364;10.072;2023-07-20T12:20:45;19.70;95.70
5011;DHT22;2524;54.364;10.072;2023-07-20T12:23:13;19.60;95.40
5011;DHT22;2524;54.364;10.072;2023-07-20T12:25:46;19.70;95.20
5011;DHT22;2524;54.364;10.072;2023-07-20T12:28:17;19.70;95.30
5011;DHT22;2524;54.364;10.072;2023-07-20T12:30:43;19.80;95.80
5011;DHT22;2524;54.364;10.072;2023-07-20T12:33:10;19.90;95.70
5011;DHT22;2524;54.364;10.072;2023-07-20T12:35:37;19.80;95.10
5011;DHT22;2524;54.364;10.072;2023-07-20T12:38:02;19.80;95.10
5011;DHT22;2524;54.364;10.072;2023-07-20T12:40:28;19.80;94.90
5011;DHT22;2524;54.364;10.072;2023-07-20T12:42:55;19.70;94.10
5011;DHT22;2524;54.364;10.072;2023-07-20T12:45:20;19.70;94.70
5011;DHT22;2524;54.364;10.072;2023-07-20T12:47:47;19.70;94.20
5011;DHT22;2524;54.364;10.072;2023-07-20T12:50:13;19.60;94.70
5011;DHT22;2524;54.364;10.072;2023-07-20T12:52:39;19.50;94.90
5011;DHT22;2524;54.364;10.072;2023-07-20T12:55:09;19.30;94.70
5011;DHT22;2524;54.364;10.072;2023-07-20T12:57:35;19.20;94.60
5011;DHT22;2524;54.364;10.072;2023-07-20T13:00:06;19.00;94.80
5011;DHT22;2524;54.364;10.072;2023-07-20T13:02:33;19.00;95.30
5011;DHT22;2524;54.364;10.072;2023-07-20T13:04:59;19.10;95.60
5011;DHT22;2524;54.364;10.072;2023-07-20T13:07:38;19.10;95.70
5011;DHT22;2524;54.364;10.072;2023-07-20T13:10:05;19.20;95.90
5011;DHT22;2524;54.364;10.072;2023-07-20T13:12:32;19.20;95.70
5011;DHT22;2524;54.364;10.072;2023-07-20T13:14:58;19.20;95.80
5011;DHT22;2524;54.364;10.072;2023-07-20T13:17:28;19.30;96.20
5011;DHT22;2524;54.364;10.072;2023-07-20T13:19:54;19.50;96.90
5011;DHT22;2524;54.364;10.072;2023-07-20T13:22:20;19.70;96.40
5011;DHT22;2524;54.364;10.072;2023-07-20T13:24:46;19.90;96.40
5011;DHT22;2524;54.364;10.072;2023-07-20T13:27:14;20.10;95.90
5011;DHT22;2524;54.364;10.072;2023-07-20T13:29:40;20.10;95.90
5011;DHT22;2524;54.364;10.072;2023-07-20T13:32:07;20.20;95.80
5011;DHT22;2524;54.364;10.072;2023-07-20T13:34:32;20.30;95.60
5011;DHT22;2524;54.364;10.072;2023-07-20T13:36:58;20.30;95.00
5011;DHT22;2524;54.364;10.072;2023-07-20T13:39:24;20.30;94.90
5011;DHT22;2524;54.364;10.072;2023-07-20T13:41:52;20.20;94.70
5011;DHT22;2524;54.364;10.072;2023-07-20T13:44:18;20.00;94.70
5011;DHT22;2524;54.364;10.072;2023-07-20T13:46:43;19.90;94.60
5011;DHT22;2524;54.364;10.072;2023-07-20T13:49:09;19.80;94.70
5011;DHT22;2524;54.364;10.072;2023-07-20T13:51:34;19.80;95.20
5011;DHT22;2524;54.364;10.072;2023-07-20T13:54:00;19.70;95.20
5011;DHT22;2524;54.364;10.072;2023-07-20T13:56:26;19.70;95.30
5011;DHT22;2524;54.364;10.072;2023-07-20T13:58:52;19.60;95.30
5011;DHT22;2524;54.364;10.072;2023-07-20T14:01:18;19.60;95.30
5011;DHT22;2524;54.364;10.072;2023-07-20T14:03:44;19.60;95.40
5011;DHT22;2524;54.364;10.072;2023-07-20T14:06:10;19.60;95.60
5011;DHT22;2524;54.364;10.072;2023-07-20T14:08:37;19.70;95.50
5011;DHT22;2524;54.364;10.072;2023-07-20T14:11:03;19.70;95.30
5011;DHT22;2524;54.364;10.072;2023-07-20T14:13:28;19.80;94.60
5011;DHT22;2524;54.364;10.072;2023-07-20T14:15:54;19.90;94.80
5011;DHT22;2524;54.364;10.072;2023-07-20T14:18:20;19.90;94.10
5011;DHT22;2524;54.364;10.072;2023-07-20T14:20:45;19.90;93.40
5011;DHT22;2524;54.364;10.072;2023-07-20T14:23:11;19.90;93.60
5011;DHT22;2524;54.364;10.072;2023-07-20T14:25:36;19.80;93.80
5011;DHT22;2524;54.364;10.072;2023-07-20T14:28:02;19.90;93.80
5011;DHT22;2524;54.364;10.072;2023-07-20T14:30:27;19.90;93.80
5011;DHT22;2524;54.364;10.072;2023-07-20T14:32:53;19.90;93.70
5011;DHT22;2524;54.364;10.072;2023-07-20T14:35:19;19.90;93.70
5011;DHT22;2524;54.364;10.072;2023-07-20T14:37:45;20.00;94.00
5011;DHT22;2524;54.364;10.072;2023-07-20T14:40:12;20.00;93.20
5011;DHT22;2524;54.364;10.072;2023-07-20T14:42:38;20.00;93.10
5011;DHT22;2524;54.364;10.072;2023-07-20T14:45:05;19.90;93.40
5011;DHT22;2524;54.364;10.072;2023-07-20T14:47:31;19.80;93.60
5011;DHT22;2524;54.364;10.072;2023-07-20T14:50:04;19.70;93.70
5011;DHT22;2524;54.364;10.072;2023-07-20T14:52:30;19.60;93.70
5011;DHT22;2524;54.364;10.072;2023-07-20T14:54:55;19.60;93.80
5011;DHT22;2524;54.364;10.072;2023-07-20T14:57:21;19.50;93.90
5011;DHT22;2524;54.364;10.072;2023-07-20T14:59:49;19.50;93.80
5011;DHT22;2524;54.364;10.072;2023-07-20T15:02:15;19.40;93.70
5011;DHT22;2524;54.364;10.072;2023-07-20T15:04:50;19.40;93.70
5011;DHT22;2524;54.364;10.072;2023-07-20T15:07:20;19.30;92.90
5011;DHT22;2524;54.364;10.072;2023-07-20T15:09:47;19.30;93.20
5011;DHT22;2524;54.364;10.072;2023-07-20T15:12:13;19.30;93.40
5011;DHT22;2524;54.364;10.072;2023-07-20T15:14:40;19.30;93.50
5011;DHT22;2524;54.364;10.072;2023-07-20T15:17:07;19.40;93.50
5011;DHT22;2524;54.364;10.072;2023-07-20T15:19:33;19.40;93.70
5011;DHT22;2524;54.364;10.072;2023-07-20T15:22:00;19.50;93.80
5011;DHT22;2524;54.364;10.072;2023-07-20T15:24:25;19.60;93.90
5011;DHT22;2524;54.364;10.072;2023-07-20T15:26:51;19.60;93.70
5011;DHT22;2524;54.364;10.072;2023-07-20T15:29:16;19.70;93.60
5011;DHT22;2524;54.364;10.072;2023-07-20T15:31:42;19.60;93.50
5011;DHT22;2524;54.364;10.072;2023-07-20T15:34:07;19.50;93.50
5011;DHT22;2524;54.364;10.072;2023-07-20T15:36:33;19.50;93.70
5011;DHT22;2524;54.364;10.072;2023-07-20T15:38:59;19.40;93.80
5011;DHT22;2524;54.364;10.072;2023-07-20T15:41:24;19.40;94.80
5011;DHT22;2524;54.364;10.072;2023-07-20T15:43:53;19.50;94.40
5011;DHT22;2524;54.364;10.072;2023-07-20T15:48:44;19.40;94.50
5011;DHT22;2524;54.364;10.072;2023-07-20T15:51:10;19.40;94.30
5011;DHT22;2524;54.364;10.072;2023-07-20T15:53:35;19.30;94.50
5011;DHT22;2524;54.364;10.072;2023-07-20T15:56:01;19.20;94.30
5011;DHT22;2524;54.364;10.072;2023-07-20T15:58:27;19.20;94.60